Portada
METAR-TAF:

METAR-TAF

Aeroports :

Ulan-Udè, Rússia

latitud: 51-50N, longitud: 107-36E, altitud: 510 m

Observació

L'informe es va fer fa 43 minuts, a les 04:30 UTC
Vent 8 kt del Nord-Est
Temperatura 12°C
Humitat 67%
Pressió 1017 hPa
Visibilitat 10 km o més
Cel ennuvolat a una alçada de 2400 ft, Cumulonimbus.

METAR: UIUU 280430Z 04004MPS 9999 BKN024CB 12/06 Q1017 R26/CLRD60 NOSIG RMK MT OBSC QFE719/0958

Hora: 13:13 (05:13 UTC)

Pronòstic

L'informe es va fer fa 3 hores i 13 minuts, a les 02:00 UTC
Pronòstic vàlid del 28 a les 03 UTC al 29 a les 03 UTC
Vent 6 kt del Nord amb ràfegues de 16 kt
Visibilitat 10 km o més
Cel ennuvolat a una alçada de 2000 ft, Cumulonimbus.
Temporalment
l' 28 a les 03 UTC al 29 a les 03 UTC
Cel cobert a una alçada de 1100 ft, Cumulonimbus.

TAF: UIUU 280200Z 2803/2903 36003G08MPS 9999 BKN020CB TEMPO 2803/2903 OVC011CB

Observacions i pronòstics meteorològics de més de 4000 aeroports (METAR i TAF).

Les estacions disponibles són els punts grocs i vermells al mapa.

Posi el ratolí al punt desitjat per veure el nom de l'estació.

Feu clic per veure les observacions i els pronòstics meteorològics.

Per canviar el mapa: feu clic els botons verds amb una creu de color negre per apropar; al botó verd amb un guió per allunyar la imatge; o en les fletxes verdes per a mapes adjacents.


METAR-TAF: